• Join FlightAware (Why Join?)
  • Login
  • US Flag 
08:24AM EDT


 

Airport Tracker/Info


-or-


 

Live Flight TrackerFlight Track Log ✈ N557SP ✈ 12-Jul-2013 ✈ KBTV - KRUT

Flight Track Log - Related Links

Times and Time Zones

All times are in EDT time to prevent confusion due to time zone crossing. See the N557SP flight status page for this flight to view local times or setup timezone preferences in your user account.

Time Position Orientation Groundspeed Altitude Reporting Facility
EDT Latitude Longitude Course Direction KTS MPH feet Rate Location/Type
06:04PM 44.4667 -72.9389 90° East  Level FlightAware Approximate
06:05PM 44.4667 -72.9037 90° East  Level FlightAware Approximate
06:06PM 44.4667 -72.8685 90° East  Level FlightAware Approximate
06:06PM 44.4247 -72.9953 148° Southeast 96 110 5,900  Level Boston Center
06:07PM 44.4640 -72.8338 103° East  Level FlightAware Approximate
06:07PM 44.4311 -72.9547 78° East 103 119 5,900  Level Boston Center
06:08PM 44.4583 -72.7995 103° East  Level FlightAware Approximate
06:08PM 44.4353 -72.9139 82° East 103 119 5,900  Level Boston Center
06:09PM 44.4525 -72.7652 103° East  Level FlightAware Approximate
06:09PM 44.4417 -72.8675 79° East 103 119 5,900  Level Boston Center
06:10PM 44.4387 -72.7387 144° Southeast  Level FlightAware Approximate
06:10PM 44.4522 -72.8269 70° East 103 119 5,900  Level Boston Center
06:11PM 44.4175 -72.7197 148° Southeast  Level FlightAware Approximate
06:11PM 44.4586 -72.7892 77° East 108 124 5,900  Level Boston Center
06:12PM 44.4672 -72.7483 74° East 96 110 5,900 -240 Level Boston Center
06:13PM 44.4442 -72.7425 170° South 64 74 5,500 -480 Descending Boston Center
06:14PM 44.4172 -72.7336 167° South 90 104 5,000 -360 Descending Boston Center
06:15PM 44.3922 -72.7161 153° Southeast 102 117 4,800 -240 Descending Boston Center
06:16PM 44.3694 -72.6928 144° Southeast 107 123 4,600 -360 Descending Boston Center
06:17PM 44.3464 -72.6753 152° Southeast 107 123 4,100 -480 Descending Boston Center
06:18PM 44.3236 -72.6606 155° Southeast 107 123 3,700 -600 Descending Boston Center
06:19PM 44.2986 -72.6403 150° Southeast 96 110 2,900 -600 Descending Boston Center
06:20PM 44.2778 -72.6256 153° Southeast 96 110 2,500 480 Descending Boston Center
06:22PM 44.2522 -72.6002 145° Southeast  Level FlightAware Approximate
06:26PM 44.1758 -72.5444 232° Southwest 96 110 6,400  Level Boston Center
06:27PM 44.1758 -72.5444 316° Northwest 96 110 6,400  Level Boston Center
06:28PM 44.1758 -72.5444 316° Northwest 96 110 6,400  Level Boston Center
06:29PM 44.1143 -72.4638 145° Southeast  Level FlightAware Approximate
06:30PM 44.0946 -72.4444 145° Southeast  Level FlightAware Approximate
06:30PM 44.1758 -72.5444 316° Northwest 96 110 6,400  Level Boston Center
06:31PM 44.0767 -72.4449 232° Southwest  Level FlightAware Approximate
06:31PM 44.0781 -72.4833 156° South 96 110 6,400  Level Boston Center
06:32PM 44.1133 -72.5036 338° Northwest 109 125 6,400  Level Boston Center
06:33PM 44.1425 -72.5239 333° Northwest 109 125 6,400 -60 Level Boston Center
06:34PM 44.1633 -72.5183 11° North 86 99 6,300  Descending Boston Center
06:35PM 44.1425 -72.5036 153° Southeast 68 78 6,400  Climbing Boston Center
06:36PM 44.1217 -72.5383 230° Southwest 58 67 6,400  Level Boston Center
06:37PM 44.0967 -72.5731 225° Southwest 97 112 6,400 -60 Level Boston Center
06:38PM 44.0717 -72.6047 222° Southwest 120 138 6,300 -60 Descending Boston Center
06:39PM 44.0486 -72.6308 219° Southwest 126 145 6,300  Level Boston Center
06:40PM 44.0153 -72.6653 217° Southwest 126 145 6,300  Level Boston Center
06:41PM 43.9903 -72.6942 220° Southwest 126 145 6,300  Level Boston Center
06:42PM 43.9631 -72.7256 220° Southwest 131 151 6,300  Level Boston Center
06:43PM 43.9381 -72.7544 220° Southwest 131 151 6,400  Climbing Boston Center
06:44PM 43.9067 -72.7889 218° Southwest 131 151 6,400  Level Boston Center
06:45PM 43.8794 -72.8175 217° Southwest 131 151 6,400 -60 Level Boston Center
06:46PM 43.8564 -72.8547 229° Southwest 131 151 6,300 -300 Descending Boston Center
06:47PM 43.8375 -72.8947 237° Southwest 126 145 5,900 -420 Descending Boston Center